createdAt,value
2024-01-06T00:00:18.388Z,997.19
2024-01-06T00:01:18.404Z,997.21
2024-01-06T00:02:18.355Z,997.24
2024-01-06T00:03:18.397Z,997.27
2024-01-06T00:04:18.424Z,997.29
2024-01-06T00:05:18.391Z,997.32
2024-01-06T00:06:18.369Z,997.34
2024-01-06T00:07:18.528Z,997.36
2024-01-06T00:08:18.258Z,997.35
2024-01-06T00:09:18.315Z,997.35
2024-01-06T00:10:18.341Z,997.35
2024-01-06T00:11:18.239Z,997.35
2024-01-06T00:12:18.281Z,997.36
2024-01-06T00:13:18.220Z,997.36
2024-01-06T00:14:18.234Z,997.36
2024-01-06T00:15:18.316Z,997.39
2024-01-06T00:16:18.212Z,997.39
2024-01-06T00:17:18.177Z,997.41
2024-01-06T00:18:18.284Z,997.42
2024-01-06T00:19:18.247Z,997.43
2024-01-06T00:20:18.150Z,997.42
2024-01-06T00:21:18.156Z,997.43
2024-01-06T00:22:18.111Z,997.44
2024-01-06T00:23:18.136Z,997.45
2024-01-06T00:24:18.136Z,997.43
2024-01-06T00:25:18.098Z,997.42
2024-01-06T00:26:18.083Z,997.41
2024-01-06T00:27:18.083Z,997.42
2024-01-06T00:28:18.097Z,997.44
2024-01-06T00:29:18.096Z,997.47
2024-01-06T00:30:18.081Z,997.47
2024-01-06T00:31:18.061Z,997.49
2024-01-06T00:32:18.048Z,997.47
2024-01-06T00:33:18.105Z,997.47
2024-01-06T00:34:18.088Z,997.46
2024-01-06T00:35:17.986Z,997.47
2024-01-06T00:36:18.012Z,997.49
2024-01-06T00:37:17.986Z,997.49
2024-01-06T00:38:17.973Z,997.50
2024-01-06T00:39:17.957Z,997.50
2024-01-06T00:40:17.934Z,997.50
2024-01-06T00:41:17.964Z,997.53
2024-01-06T00:42:17.949Z,997.52
2024-01-06T00:43:17.915Z,997.54
2024-01-06T00:44:17.912Z,997.55
2024-01-06T00:45:17.938Z,997.56
2024-01-06T00:46:17.894Z,997.56
2024-01-06T00:47:34.602Z,997.57
2024-01-06T00:48:18.208Z,997.57
2024-01-06T00:49:18.122Z,997.57
2024-01-06T00:50:17.921Z,997.58
2024-01-06T00:51:17.909Z,997.58
2024-01-06T00:52:17.848Z,997.59
2024-01-06T00:53:17.858Z,997.60
2024-01-06T00:54:17.893Z,997.61
2024-01-06T00:55:17.809Z,997.61
2024-01-06T00:56:18.020Z,997.63
2024-01-06T00:57:17.900Z,997.65
2024-01-06T00:58:17.833Z,997.67
2024-01-06T00:59:17.780Z,997.67
2024-01-06T01:00:17.837Z,997.68
2024-01-06T01:01:17.839Z,997.69
2024-01-06T01:02:17.764Z,997.71
2024-01-06T01:03:17.898Z,997.72
2024-01-06T01:04:17.923Z,997.72
2024-01-06T01:05:17.738Z,997.73
2024-01-06T01:06:17.803Z,997.75
2024-01-06T01:07:17.725Z,997.76
2024-01-06T01:08:17.762Z,997.81
2024-01-06T01:09:17.757Z,997.81
2024-01-06T01:10:17.657Z,997.86
2024-01-06T01:11:17.639Z,997.85
2024-01-06T01:12:17.808Z,997.87
2024-01-06T01:13:17.726Z,997.89
2024-01-06T01:14:17.688Z,997.91
2024-01-06T01:15:17.814Z,997.92
2024-01-06T01:16:17.670Z,997.93
2024-01-06T01:17:17.579Z,997.95
2024-01-06T01:18:17.782Z,997.96
2024-01-06T01:19:17.862Z,997.98
2024-01-06T01:20:17.560Z,998.00
2024-01-06T01:21:17.635Z,998.00
2024-01-06T01:22:17.558Z,998.02
2024-01-06T01:23:17.563Z,998.03
2024-01-06T01:24:17.688Z,998.02
2024-01-06T01:25:17.497Z,998.03
2024-01-06T01:26:17.533Z,998.05
2024-01-06T01:27:17.554Z,998.05
2024-01-06T01:28:17.500Z,998.06
2024-01-06T01:29:17.488Z,998.07
2024-01-06T01:30:17.792Z,998.09
2024-01-06T01:31:17.650Z,998.08
2024-01-06T01:32:17.604Z,998.09
2024-01-06T01:33:17.580Z,998.09
2024-01-06T01:34:17.618Z,998.11
2024-01-06T01:35:17.454Z,998.13
2024-01-06T01:36:17.783Z,998.15
2024-01-06T01:37:17.407Z,998.17
2024-01-06T01:38:17.403Z,998.18
2024-01-06T01:39:17.451Z,998.19
2024-01-06T01:40:17.383Z,998.20
2024-01-06T01:41:17.362Z,998.20
2024-01-06T01:42:17.481Z,998.21
2024-01-06T01:43:17.327Z,998.21
2024-01-06T01:44:17.576Z,998.21
2024-01-06T01:45:17.653Z,998.21
2024-01-06T01:46:17.520Z,998.21
2024-01-06T01:47:17.435Z,998.22
2024-01-06T01:48:17.657Z,998.23
2024-01-06T01:49:17.469Z,998.23
2024-01-06T01:50:17.298Z,998.24
2024-01-06T01:51:17.481Z,998.26
2024-01-06T01:52:17.325Z,998.27
2024-01-06T01:53:17.815Z,998.28
2024-01-06T01:54:17.757Z,998.29
2024-01-06T01:55:17.415Z,998.28
2024-01-06T01:56:17.461Z,998.29
2024-01-06T01:57:17.645Z,998.30
2024-01-06T01:58:17.482Z,998.31
2024-01-06T01:59:17.417Z,998.32
2024-01-06T02:00:17.451Z,998.34
2024-01-06T02:01:17.424Z,998.34
2024-01-06T02:02:17.455Z,998.35
2024-01-06T02:03:17.574Z,998.36
2024-01-06T02:04:17.178Z,998.38
2024-01-06T02:05:17.173Z,998.38
2024-01-06T02:06:17.309Z,998.38
2024-01-06T02:07:17.130Z,998.39
2024-01-06T02:08:17.202Z,998.41
2024-01-06T02:09:17.290Z,998.42
2024-01-06T02:10:17.109Z,998.44
2024-01-06T02:11:17.210Z,998.44
2024-01-06T02:12:17.118Z,998.44
2024-01-06T02:13:17.144Z,998.45
2024-01-06T02:14:17.118Z,998.45
2024-01-06T02:15:17.088Z,998.45
2024-01-06T02:16:17.080Z,998.46
2024-01-06T02:17:17.257Z,998.46
2024-01-06T02:18:17.453Z,998.47
2024-01-06T02:19:17.144Z,998.48
2024-01-06T02:20:17.426Z,998.49
2024-01-06T02:21:17.168Z,998.49
2024-01-06T02:22:20.157Z,998.50
2024-01-06T02:23:17.038Z,998.50
2024-01-06T02:24:17.157Z,998.50
2024-01-06T02:25:21.562Z,998.51
2024-01-06T02:26:17.046Z,998.51
2024-01-06T02:27:17.030Z,998.53
2024-01-06T02:28:16.959Z,998.54
2024-01-06T02:29:16.890Z,998.55
2024-01-06T02:30:16.998Z,998.57
2024-01-06T02:31:17.034Z,998.60
2024-01-06T02:32:17.175Z,998.62
2024-01-06T02:33:17.023Z,998.64
2024-01-06T02:34:17.053Z,998.67
2024-01-06T02:35:17.153Z,998.70
2024-01-06T02:36:17.080Z,998.73
2024-01-06T02:37:17.849Z,998.75
2024-01-06T02:38:39.039Z,998.77
2024-01-06T02:39:16.970Z,998.80
2024-01-06T02:40:16.865Z,998.83
2024-01-06T02:41:16.952Z,998.85
2024-01-06T02:42:16.800Z,998.86
2024-01-06T02:43:16.897Z,998.88
2024-01-06T02:44:17.755Z,998.90
2024-01-06T02:45:16.820Z,998.91
2024-01-06T02:46:16.781Z,998.92
2024-01-06T02:47:16.776Z,998.93
2024-01-06T02:48:16.798Z,998.95
2024-01-06T02:49:16.897Z,998.98
2024-01-06T02:50:16.705Z,999.00
2024-01-06T02:51:17.036Z,999.02
2024-01-06T02:52:16.818Z,999.05
2024-01-06T02:53:16.761Z,999.08
2024-01-06T02:54:16.759Z,999.10
2024-01-06T02:55:16.673Z,999.12
2024-01-06T02:56:16.580Z,999.14
2024-01-06T02:57:16.662Z,999.15
2024-01-06T02:58:16.669Z,999.18
2024-01-06T02:59:16.692Z,999.20
2024-01-06T03:00:16.665Z,999.21
2024-01-06T03:01:16.718Z,999.22
2024-01-06T03:02:16.712Z,999.22
2024-01-06T03:03:16.757Z,999.23
2024-01-06T03:04:16.634Z,999.22
2024-01-06T03:05:16.597Z,999.23
2024-01-06T03:06:16.603Z,999.23
2024-01-06T03:07:16.469Z,999.23
2024-01-06T03:08:17.003Z,999.25
2024-01-06T03:09:16.601Z,999.26
2024-01-06T03:10:16.626Z,999.27
2024-01-06T03:11:16.700Z,999.29
2024-01-06T03:12:16.636Z,999.30
2024-01-06T03:13:16.661Z,999.30
2024-01-06T03:14:16.631Z,999.34
2024-01-06T03:15:17.122Z,999.35
2024-01-06T03:16:16.411Z,999.35
2024-01-06T03:17:16.447Z,999.35
2024-01-06T03:18:16.494Z,999.36
2024-01-06T03:19:16.610Z,999.37
2024-01-06T03:20:16.412Z,999.38
2024-01-06T03:21:16.514Z,999.39
2024-01-06T03:22:16.520Z,999.40
2024-01-06T03:23:16.382Z,999.40
2024-01-06T03:24:16.414Z,999.41
2024-01-06T03:25:16.345Z,999.41
2024-01-06T03:26:16.305Z,999.42
2024-01-06T03:27:16.306Z,999.43
2024-01-06T03:28:16.384Z,999.45
2024-01-06T03:29:16.261Z,999.47
2024-01-06T03:30:16.319Z,999.48
2024-01-06T03:31:16.324Z,999.50
2024-01-06T03:32:16.425Z,999.52
2024-01-06T03:33:16.323Z,999.53
2024-01-06T03:34:16.298Z,999.53
2024-01-06T03:35:16.211Z,999.54
2024-01-06T03:36:16.253Z,999.54
2024-01-06T03:37:16.241Z,999.55
2024-01-06T03:38:16.209Z,999.55
2024-01-06T03:39:22.962Z,999.55
2024-01-06T03:40:16.109Z,999.55
2024-01-06T03:41:16.109Z,999.55
2024-01-06T03:42:16.092Z,999.56
2024-01-06T03:43:16.056Z,999.57
2024-01-06T03:44:16.065Z,999.58
2024-01-06T03:45:16.130Z,999.60
2024-01-06T03:46:16.044Z,999.61
2024-01-06T03:47:16.053Z,999.62
2024-01-06T03:48:16.121Z,999.63
2024-01-06T03:49:16.085Z,999.65
2024-01-06T03:50:15.978Z,999.66
2024-01-06T03:51:16.077Z,999.67
2024-01-06T03:52:16.158Z,999.69
2024-01-06T03:53:15.976Z,999.71
2024-01-06T03:54:16.781Z,999.73
2024-01-06T03:55:15.975Z,999.73
2024-01-06T03:56:15.920Z,999.76
2024-01-06T03:57:16.024Z,999.78
2024-01-06T03:58:15.902Z,999.80
2024-01-06T03:59:15.943Z,999.81
2024-01-06T04:00:15.893Z,999.83
2024-01-06T04:01:15.918Z,999.85
2024-01-06T04:02:15.893Z,999.86
2024-01-06T04:03:15.906Z,999.88
2024-01-06T04:04:15.932Z,999.89
2024-01-06T04:05:15.940Z,999.90
2024-01-06T04:06:15.852Z,999.90
2024-01-06T04:07:15.839Z,999.90
2024-01-06T04:08:15.810Z,999.89
2024-01-06T04:09:18.558Z,999.89
2024-01-06T04:10:15.795Z,999.88
2024-01-06T04:11:15.780Z,999.91
2024-01-06T04:12:15.786Z,999.93
2024-01-06T04:13:15.852Z,999.94
2024-01-06T04:14:15.787Z,999.95
2024-01-06T04:15:15.791Z,999.96
2024-01-06T04:16:15.719Z,999.96
2024-01-06T04:17:15.717Z,999.96
2024-01-06T04:18:15.811Z,999.96
2024-01-06T04:19:15.763Z,999.96
2024-01-06T04:20:15.678Z,999.95
2024-01-06T04:21:15.714Z,999.96
2024-01-06T04:22:16.370Z,999.95
2024-01-06T04:23:15.659Z,999.95
2024-01-06T04:24:15.661Z,999.94
2024-01-06T04:25:15.649Z,999.95
2024-01-06T04:26:15.645Z,999.96
2024-01-06T04:27:15.673Z,999.97
2024-01-06T04:28:15.612Z,999.99
2024-01-06T04:29:15.609Z,1000.00
2024-01-06T04:30:15.656Z,1000.02
2024-01-06T04:31:15.684Z,1000.03
2024-01-06T04:32:15.622Z,1000.04
2024-01-06T04:33:15.754Z,1000.05
2024-01-06T04:34:15.717Z,1000.06
2024-01-06T04:35:15.530Z,1000.07
2024-01-06T04:36:15.586Z,1000.08
2024-01-06T04:37:15.526Z,1000.09
2024-01-06T04:38:15.489Z,1000.09
2024-01-06T04:39:15.538Z,1000.11
2024-01-06T04:40:15.496Z,1000.10
2024-01-06T04:41:15.494Z,1000.11
2024-01-06T04:42:15.475Z,1000.10
2024-01-06T04:43:15.447Z,1000.10
2024-01-06T04:44:15.453Z,1000.10
2024-01-06T04:45:15.470Z,1000.10
2024-01-06T04:46:15.430Z,1000.10
2024-01-06T04:47:15.417Z,1000.10
2024-01-06T04:48:15.576Z,1000.10
2024-01-06T04:49:15.597Z,1000.10
2024-01-06T04:50:15.390Z,1000.11
2024-01-06T04:51:15.400Z,1000.12
2024-01-06T04:52:32.992Z,1000.13
2024-01-06T04:53:15.757Z,1000.14
2024-01-06T04:54:15.673Z,1000.15
2024-01-06T04:55:15.780Z,1000.16
2024-01-06T04:56:15.498Z,1000.17
2024-01-06T04:57:15.567Z,1000.19
2024-01-06T04:58:15.460Z,1000.20
2024-01-06T04:59:15.640Z,1000.21
2024-01-06T05:00:15.608Z,1000.23
2024-01-06T05:01:15.841Z,1000.25
2024-01-06T05:02:15.625Z,1000.26
2024-01-06T05:03:16.073Z,1000.27
2024-01-06T05:04:15.733Z,1000.27
2024-01-06T05:05:15.616Z,1000.28
2024-01-06T05:06:16.099Z,1000.29
2024-01-06T05:07:16.306Z,1000.30
2024-01-06T05:08:15.716Z,1000.30
2024-01-06T05:09:15.925Z,1000.32
2024-01-06T05:10:16.345Z,1000.33
2024-01-06T05:11:15.675Z,1000.35
2024-01-06T05:12:15.605Z,1000.37
2024-01-06T05:13:16.264Z,1000.39
2024-01-06T05:14:15.746Z,1000.40
2024-01-06T05:15:16.272Z,1000.42
2024-01-06T05:16:15.852Z,1000.43
2024-01-06T05:17:16.182Z,1000.44
2024-01-06T05:18:15.707Z,1000.46
2024-01-06T05:19:15.409Z,1000.47
2024-01-06T05:20:15.874Z,1000.47
2024-01-06T05:21:16.229Z,1000.48
2024-01-06T05:22:15.208Z,1000.48
2024-01-06T05:23:15.541Z,1000.48
2024-01-06T05:24:15.213Z,1000.48
2024-01-06T05:25:15.321Z,1000.49
2024-01-06T05:26:15.337Z,1000.50
2024-01-06T05:27:15.677Z,1000.49
2024-01-06T05:28:15.118Z,1000.49
2024-01-06T05:29:15.099Z,1000.51
2024-01-06T05:30:15.142Z,1000.52
2024-01-06T05:31:15.105Z,1000.52
2024-01-06T05:32:15.255Z,1000.54
2024-01-06T05:33:15.528Z,1000.56
2024-01-06T05:34:15.147Z,1000.58
2024-01-06T05:35:15.209Z,1000.60
2024-01-06T05:36:15.223Z,1000.63
2024-01-06T05:37:15.746Z,1000.64
2024-01-06T05:38:15.992Z,1000.67
2024-01-06T05:39:17.399Z,1000.70
2024-01-06T05:40:16.128Z,1000.71
2024-01-06T05:41:15.274Z,1000.72
2024-01-06T05:42:15.483Z,1000.74
2024-01-06T05:43:14.998Z,1000.75
2024-01-06T05:44:14.915Z,1000.76
2024-01-06T05:45:15.272Z,1000.76
2024-01-06T05:46:14.950Z,1000.77
2024-01-06T05:47:15.462Z,1000.78
2024-01-06T05:48:15.173Z,1000.78
2024-01-06T05:49:15.042Z,1000.80
2024-01-06T05:50:25.029Z,1000.81
2024-01-06T05:51:16.568Z,1000.81
2024-01-06T05:52:14.930Z,1000.83
2024-01-06T05:53:17.997Z,1000.83
2024-01-06T05:54:15.598Z,1000.84
2024-01-06T05:55:15.066Z,1000.86
2024-01-06T05:56:20.125Z,1000.85
2024-01-06T05:57:22.622Z,1000.86
2024-01-06T05:58:16.057Z,1000.88
2024-01-06T05:59:17.482Z,1000.89
2024-01-06T06:00:15.503Z,1000.89
2024-01-06T06:01:15.850Z,1000.89
2024-01-06T06:02:14.987Z,1000.90
2024-01-06T06:03:15.875Z,1000.92
2024-01-06T06:04:22.501Z,1000.93
2024-01-06T06:05:14.648Z,1000.95
2024-01-06T06:06:14.653Z,1000.96
2024-01-06T06:07:14.602Z,1000.98
2024-01-06T06:08:14.592Z,1001.02
2024-01-06T06:09:14.682Z,1001.04
2024-01-06T06:10:14.814Z,1001.07
2024-01-06T06:11:14.564Z,1001.09
2024-01-06T06:12:14.591Z,1001.11
2024-01-06T06:13:14.541Z,1001.14
2024-01-06T06:14:14.563Z,1001.15
2024-01-06T06:15:14.545Z,1001.17
2024-01-06T06:16:14.515Z,1001.20
2024-01-06T06:17:14.501Z,1001.20
2024-01-06T06:18:14.706Z,1001.22
2024-01-06T06:19:14.546Z,1001.23
2024-01-06T06:20:14.481Z,1001.23
2024-01-06T06:21:14.500Z,1001.25
2024-01-06T06:22:14.480Z,1001.27
2024-01-06T06:23:14.438Z,1001.29
2024-01-06T06:24:14.472Z,1001.30
2024-01-06T06:25:14.412Z,1001.32
2024-01-06T06:26:14.405Z,1001.33
2024-01-06T06:27:14.469Z,1001.34
2024-01-06T06:28:14.394Z,1001.36
2024-01-06T06:29:14.369Z,1001.36
2024-01-06T06:30:14.537Z,1001.37
2024-01-06T06:31:14.413Z,1001.39
2024-01-06T06:32:14.353Z,1001.41
2024-01-06T06:33:14.415Z,1001.43
2024-01-06T06:34:14.807Z,1001.44
2024-01-06T06:35:14.314Z,1001.47
2024-01-06T06:36:14.347Z,1001.50
2024-01-06T06:37:14.312Z,1001.53
2024-01-06T06:38:14.309Z,1001.57
2024-01-06T06:39:14.356Z,1001.60
2024-01-06T06:40:14.297Z,1001.64
2024-01-06T06:41:14.248Z,1001.66
2024-01-06T06:42:14.284Z,1001.70
2024-01-06T06:45:10.770Z,1001.72
2024-01-06T06:45:16.244Z,1001.75
2024-01-06T06:46:16.176Z,1001.76
2024-01-06T06:47:16.178Z,1001.76
2024-01-06T06:48:16.245Z,1001.78
2024-01-06T06:49:16.276Z,1001.78
2024-01-06T06:50:16.141Z,1001.78
2024-01-06T06:51:16.183Z,1001.80
2024-01-06T06:52:16.118Z,1001.79
2024-01-06T06:53:16.167Z,1001.80
2024-01-06T06:54:16.197Z,1001.81
2024-01-06T06:55:16.093Z,1001.82
2024-01-06T06:56:16.116Z,1001.83
2024-01-06T06:57:16.091Z,1001.86
2024-01-06T06:58:16.453Z,1001.88
2024-01-06T06:59:16.059Z,1001.91
2024-01-06T07:00:16.108Z,1001.93
2024-01-06T07:01:16.175Z,1001.96
2024-01-06T07:02:16.044Z,1001.99
2024-01-06T07:03:16.205Z,1002.02
2024-01-06T07:04:16.026Z,1002.04
2024-01-06T07:05:15.998Z,1002.07
2024-01-06T07:06:16.106Z,1002.08
2024-01-06T07:07:15.914Z,1002.09
2024-01-06T07:08:15.975Z,1002.11
2024-01-06T07:09:15.960Z,1002.12
2024-01-06T07:10:15.933Z,1002.13
2024-01-06T07:11:15.886Z,1002.14
2024-01-06T07:12:15.984Z,1002.15
2024-01-06T07:13:15.931Z,1002.16
2024-01-06T07:14:15.897Z,1002.18
2024-01-06T07:15:15.880Z,1002.19
2024-01-06T07:16:19.204Z,1002.19
2024-01-06T07:17:15.853Z,1002.21
2024-01-06T07:18:16.061Z,1002.23
2024-01-06T07:19:15.883Z,1002.25
2024-01-06T07:20:15.808Z,1002.27
2024-01-06T07:21:15.780Z,1002.27
2024-01-06T07:22:15.790Z,1002.30
2024-01-06T07:23:15.782Z,1002.32
2024-01-06T07:24:15.807Z,1002.33
2024-01-06T07:25:15.733Z,1002.36
2024-01-06T07:26:15.725Z,1002.37
2024-01-06T07:27:15.740Z,1002.39
2024-01-06T07:28:15.737Z,1002.40
2024-01-06T07:29:15.704Z,1002.42
2024-01-06T07:30:15.796Z,1002.44
2024-01-06T07:31:15.813Z,1002.46
2024-01-06T07:32:15.724Z,1002.48
2024-01-06T07:33:15.712Z,1002.50
2024-01-06T07:34:15.697Z,1002.53
2024-01-06T07:35:15.685Z,1002.55
2024-01-06T07:36:15.639Z,1002.59
2024-01-06T07:37:15.666Z,1002.60
2024-01-06T07:38:15.609Z,1002.62
2024-01-06T07:39:15.616Z,1002.64
2024-01-06T07:40:15.599Z,1002.64
2024-01-06T07:41:15.576Z,1002.65
2024-01-06T07:42:15.591Z,1002.65
2024-01-06T07:43:15.550Z,1002.67
2024-01-06T07:44:15.621Z,1002.68
2024-01-06T07:45:15.599Z,1002.68
2024-01-06T07:46:17.646Z,1002.69
2024-01-06T07:47:15.665Z,1002.71
2024-01-06T07:48:15.740Z,1002.71
2024-01-06T07:49:15.562Z,1002.74
2024-01-06T07:50:15.499Z,1002.74
2024-01-06T07:51:15.519Z,1002.76
2024-01-06T07:52:15.472Z,1002.77
2024-01-06T07:53:15.472Z,1002.78
2024-01-06T07:54:15.475Z,1002.78
2024-01-06T07:55:15.455Z,1002.79
2024-01-06T07:56:15.429Z,1002.81
2024-01-06T07:57:15.465Z,1002.82
2024-01-06T07:58:15.433Z,1002.84
2024-01-06T07:59:15.404Z,1002.86
2024-01-06T08:00:15.532Z,1002.86
2024-01-06T08:01:15.431Z,1002.87
2024-01-06T08:02:15.362Z,1002.88
2024-01-06T08:03:15.587Z,1002.90
2024-01-06T08:04:15.491Z,1002.90
2024-01-06T08:05:15.343Z,1002.92
2024-01-06T08:06:15.353Z,1002.95
2024-01-06T08:07:15.538Z,1002.97
2024-01-06T08:08:15.294Z,1003.00
2024-01-06T08:09:15.336Z,1003.02
2024-01-06T08:10:15.317Z,1003.04
2024-01-06T08:11:15.288Z,1003.05
2024-01-06T08:12:15.373Z,1003.06
2024-01-06T08:13:15.297Z,1003.08
2024-01-06T08:14:15.280Z,1003.09
2024-01-06T08:15:15.302Z,1003.10
2024-01-06T08:16:15.336Z,1003.11
2024-01-06T08:17:17.811Z,1003.14
2024-01-06T08:18:15.430Z,1003.15
2024-01-06T08:19:15.403Z,1003.18
2024-01-06T08:20:15.292Z,1003.21
2024-01-06T08:21:15.295Z,1003.24
2024-01-06T08:22:15.335Z,1003.25
2024-01-06T08:23:15.260Z,1003.26
2024-01-06T08:24:15.198Z,1003.26
2024-01-06T08:25:15.122Z,1003.27
2024-01-06T08:26:15.131Z,1003.30
2024-01-06T08:27:15.159Z,1003.30
2024-01-06T08:28:15.125Z,1003.30
2024-01-06T08:29:15.379Z,1003.32
2024-01-06T08:30:15.250Z,1003.33
2024-01-06T08:31:15.345Z,1003.35
2024-01-06T08:32:15.081Z,1003.36
2024-01-06T08:33:15.201Z,1003.38
2024-01-06T08:34:15.140Z,1003.40
2024-01-06T08:35:15.070Z,1003.41
2024-01-06T08:36:15.166Z,1003.44
2024-01-06T08:37:15.023Z,1003.44
2024-01-06T08:38:15.004Z,1003.46
2024-01-06T08:39:15.022Z,1003.47
2024-01-06T08:40:15.023Z,1003.49
2024-01-06T08:41:14.986Z,1003.50
2024-01-06T08:42:14.979Z,1003.51
2024-01-06T08:43:14.954Z,1003.52
2024-01-06T08:44:14.951Z,1003.54
2024-01-06T08:45:15.006Z,1003.55
2024-01-06T08:46:15.008Z,1003.57
2024-01-06T08:47:14.936Z,1003.59
2024-01-06T08:48:15.204Z,1003.59
2024-01-06T08:49:14.978Z,1003.60
2024-01-06T08:50:14.872Z,1003.61
2024-01-06T08:51:14.889Z,1003.62
2024-01-06T08:52:14.873Z,1003.65
2024-01-06T08:53:14.869Z,1003.65
2024-01-06T08:54:14.871Z,1003.66
2024-01-06T08:55:16.060Z,1003.69
2024-01-06T08:56:14.872Z,1003.70
2024-01-06T08:57:14.849Z,1003.72
2024-01-06T08:58:14.829Z,1003.74
2024-01-06T08:59:14.794Z,1003.76
2024-01-06T09:00:14.818Z,1003.79
2024-01-06T09:01:14.918Z,1003.81
2024-01-06T09:02:14.771Z,1003.79
2024-01-06T09:03:14.891Z,1003.82
2024-01-06T09:04:14.790Z,1003.83
2024-01-06T09:05:14.791Z,1003.84
2024-01-06T09:06:14.876Z,1003.84
2024-01-06T09:07:14.741Z,1003.86
2024-01-06T09:08:14.742Z,1003.89
2024-01-06T09:09:14.755Z,1003.92
2024-01-06T09:10:14.688Z,1003.93
2024-01-06T09:11:14.666Z,1003.94
2024-01-06T09:12:14.728Z,1003.97
2024-01-06T09:13:14.663Z,1004.00
2024-01-06T09:14:14.649Z,1004.02
2024-01-06T09:15:14.633Z,1004.04
2024-01-06T09:16:14.674Z,1004.05
2024-01-06T09:17:14.621Z,1004.07
2024-01-06T09:18:14.950Z,1004.11
2024-01-06T09:19:14.752Z,1004.12
2024-01-06T09:20:14.574Z,1004.14
2024-01-06T09:21:14.630Z,1004.16
2024-01-06T09:22:14.562Z,1004.16
2024-01-06T09:23:14.568Z,1004.18
2024-01-06T09:24:14.612Z,1004.21
2024-01-06T09:25:14.534Z,1004.22
2024-01-06T09:26:14.529Z,1004.24
2024-01-06T09:27:14.819Z,1004.26
2024-01-06T09:28:14.524Z,1004.28
2024-01-06T09:29:16.465Z,1004.30
2024-01-06T09:30:14.622Z,1004.31
2024-01-06T09:31:14.511Z,1004.35
2024-01-06T09:32:14.469Z,1004.34
2024-01-06T09:33:14.511Z,1004.35
2024-01-06T09:34:14.508Z,1004.37
2024-01-06T09:35:14.508Z,1004.40
2024-01-06T09:36:14.491Z,1004.42
2024-01-06T09:37:14.400Z,1004.42
2024-01-06T09:38:14.396Z,1004.44
2024-01-06T09:39:14.419Z,1004.46
2024-01-06T09:40:14.396Z,1004.48
2024-01-06T09:41:14.382Z,1004.49
2024-01-06T09:42:14.398Z,1004.51
2024-01-06T09:43:14.384Z,1004.53
2024-01-06T09:44:16.950Z,1004.55
2024-01-06T09:45:14.391Z,1004.56
2024-01-06T09:46:14.320Z,1004.58
2024-01-06T09:47:14.302Z,1004.60
2024-01-06T09:48:15.284Z,1004.61
2024-01-06T09:49:14.532Z,1004.63
2024-01-06T09:50:14.279Z,1004.66
2024-01-06T09:51:14.321Z,1004.69
2024-01-06T09:52:14.258Z,1004.72
2024-01-06T09:53:14.261Z,1004.73
2024-01-06T09:54:14.308Z,1004.74
2024-01-06T09:55:14.229Z,1004.76
2024-01-06T09:56:14.221Z,1004.76
2024-01-06T09:57:14.240Z,1004.78
2024-01-06T09:58:14.266Z,1004.77
2024-01-06T09:59:14.217Z,1004.77
2024-01-06T10:00:14.267Z,1004.77
2024-01-06T10:01:14.213Z,1004.79
2024-01-06T10:02:14.209Z,1004.80
2024-01-06T10:03:14.250Z,1004.80
2024-01-06T10:04:18.860Z,1004.81
2024-01-06T10:05:14.273Z,1004.82
2024-01-06T10:06:22.560Z,1004.82
2024-01-06T10:07:14.156Z,1004.83
2024-01-06T10:08:14.129Z,1004.85
2024-01-06T10:09:14.101Z,1004.86
2024-01-06T10:10:14.119Z,1004.88
2024-01-06T10:11:14.103Z,1004.88
2024-01-06T10:12:14.086Z,1004.89
2024-01-06T10:13:14.056Z,1004.90
2024-01-06T10:14:14.041Z,1004.91
2024-01-06T10:15:14.111Z,1004.91
2024-01-06T10:16:14.037Z,1004.93
2024-01-06T10:17:14.014Z,1004.94
2024-01-06T10:18:14.158Z,1004.95
2024-01-06T10:19:14.099Z,1004.97
2024-01-06T10:20:13.977Z,1004.98
2024-01-06T10:21:14.014Z,1004.99
2024-01-06T10:22:13.971Z,1005.01
2024-01-06T10:23:13.938Z,1005.03
2024-01-06T10:24:13.958Z,1005.03
2024-01-06T10:25:13.930Z,1005.04
2024-01-06T10:26:13.929Z,1005.05
2024-01-06T10:27:13.923Z,1005.06
2024-01-06T10:28:13.905Z,1005.08
2024-01-06T10:29:13.905Z,1005.09
2024-01-06T10:30:14.002Z,1005.10
2024-01-06T10:31:13.945Z,1005.12
2024-01-06T10:32:13.861Z,1005.11
2024-01-06T10:33:13.936Z,1005.12
2024-01-06T10:34:13.921Z,1005.12
2024-01-06T10:35:13.849Z,1005.11
2024-01-06T10:36:13.860Z,1005.13
2024-01-06T10:37:13.849Z,1005.14
2024-01-06T10:38:13.802Z,1005.15
2024-01-06T10:39:13.802Z,1005.16
2024-01-06T10:40:13.898Z,1005.16
2024-01-06T10:41:13.756Z,1005.16
2024-01-06T10:42:13.804Z,1005.17
2024-01-06T10:43:13.766Z,1005.18
2024-01-06T10:44:13.730Z,1005.19
2024-01-06T10:45:13.779Z,1005.20
2024-01-06T10:46:13.923Z,1005.21
2024-01-06T10:47:13.720Z,1005.22
2024-01-06T10:48:13.781Z,1005.22
2024-01-06T10:49:14.014Z,1005.23
2024-01-06T10:50:13.677Z,1005.23
2024-01-06T10:51:13.809Z,1005.22
2024-01-06T10:52:13.793Z,1005.23
2024-01-06T10:53:13.640Z,1005.24
2024-01-06T10:54:13.832Z,1005.24
2024-01-06T10:55:13.640Z,1005.23
2024-01-06T10:56:13.738Z,1005.24
2024-01-06T10:57:13.690Z,1005.24
2024-01-06T10:58:13.600Z,1005.25
2024-01-06T10:59:13.599Z,1005.25
2024-01-06T11:00:13.779Z,1005.26
2024-01-06T11:01:16.548Z,1005.26
2024-01-06T11:02:13.587Z,1005.27
2024-01-06T11:03:13.640Z,1005.27
2024-01-06T11:04:13.659Z,1005.27
2024-01-06T11:05:13.598Z,1005.28
2024-01-06T11:06:13.610Z,1005.29
2024-01-06T11:07:13.551Z,1005.29
2024-01-06T11:08:13.565Z,1005.29
2024-01-06T11:09:13.593Z,1005.29
2024-01-06T11:10:13.507Z,1005.30
2024-01-06T11:11:13.464Z,1005.29
2024-01-06T11:12:13.468Z,1005.28
2024-01-06T11:13:13.763Z,1005.30
2024-01-06T11:14:13.431Z,1005.30
2024-01-06T11:15:13.461Z,1005.30
2024-01-06T11:16:13.408Z,1005.30
2024-01-06T11:17:13.413Z,1005.31
2024-01-06T11:18:13.526Z,1005.31
2024-01-06T11:19:13.587Z,1005.30
2024-01-06T11:20:13.478Z,1005.29
2024-01-06T11:21:13.480Z,1005.28
2024-01-06T11:22:13.374Z,1005.27
2024-01-06T11:23:13.362Z,1005.27
2024-01-06T11:24:13.477Z,1005.26
2024-01-06T11:25:13.319Z,1005.25
2024-01-06T11:26:13.320Z,1005.26
2024-01-06T11:27:13.397Z,1005.26
2024-01-06T11:28:13.320Z,1005.28
2024-01-06T11:29:13.304Z,1005.27
2024-01-06T11:30:13.315Z,1005.28
2024-01-06T11:31:13.492Z,1005.29
2024-01-06T11:32:13.257Z,1005.30
2024-01-06T11:33:13.289Z,1005.30
2024-01-06T11:34:13.297Z,1005.30
2024-01-06T11:35:13.272Z,1005.30
2024-01-06T11:36:13.290Z,1005.29
2024-01-06T11:37:13.200Z,1005.29
2024-01-06T11:38:13.194Z,1005.28
2024-01-06T11:39:13.174Z,1005.28
2024-01-06T11:40:13.188Z,1005.27
2024-01-06T11:41:13.867Z,1005.28
2024-01-06T11:42:13.167Z,1005.28
2024-01-06T11:43:13.233Z,1005.29
2024-01-06T11:44:13.128Z,1005.29
2024-01-06T11:45:13.154Z,1005.28
2024-01-06T11:46:13.188Z,1005.28
2024-01-06T11:47:13.132Z,1005.27
2024-01-06T11:48:13.341Z,1005.27
2024-01-06T11:49:13.156Z,1005.27
2024-01-06T11:50:13.073Z,1005.26
2024-01-06T11:51:13.072Z,1005.27
2024-01-06T11:52:13.049Z,1005.27
2024-01-06T11:53:13.110Z,1005.27
2024-01-06T11:54:13.048Z,1005.25
2024-01-06T11:55:13.091Z,1005.25
2024-01-06T11:56:13.041Z,1005.25
2024-01-06T11:57:12.994Z,1005.24
2024-01-06T11:58:13.020Z,1005.26
2024-01-06T11:59:13.012Z,1005.28
2024-01-06T12:00:12.975Z,1005.29
2024-01-06T12:01:13.088Z,1005.29
2024-01-06T12:02:12.947Z,1005.30
2024-01-06T12:03:12.950Z,1005.31
2024-01-06T12:04:12.973Z,1005.32
2024-01-06T12:05:12.929Z,1005.32
2024-01-06T12:06:12.984Z,1005.32
2024-01-06T12:07:12.947Z,1005.32
2024-01-06T12:08:12.917Z,1005.34
2024-01-06T12:09:12.903Z,1005.34
2024-01-06T12:10:12.875Z,1005.34
2024-01-06T12:11:12.856Z,1005.35
2024-01-06T12:12:12.878Z,1005.35
2024-01-06T12:13:14.465Z,1005.36
2024-01-06T12:14:12.930Z,1005.38